Totowa Boro, New Jersey
Current Conditions -  °F | °C
As of 1:53 AM on Sunday 26 Oct 2014 (Local Time) from KCDW Reporting Station
Broken Clouds Broken Clouds  
Wind Chill: 55°   Ceiling: 10000
Heat Index: 55°   Visibility: 10mi
Dew Point: 49°   Wind: 0mph
Humidity: 80%   Direction: NA
Pressure: 29.57"   Gusts: NA
Location:  40.904°N, 74.2218°W
Report Text: KCDW 260553Z 00000KT 10SM BKN100 13/09 A2957 RMK AO2 RAE10 SLP020 P0000 60001 T01280094 10167 20128 56006
Loading
Personal Weather Stations






























Interactive Weather Map
Tropical Storm Tracking
New forecast layout! Learn more

10-Day Weather Forecast

Advertisements
Track Severe Weather on mobile